createdAt,value
2022-12-23T00:00:11.263Z,98828.53
2022-12-23T00:02:56.821Z,98835.02
2022-12-23T00:05:35.784Z,98836.98
2022-12-23T00:08:10.159Z,98843.45
2022-12-23T00:10:43.066Z,98837.52
2022-12-23T00:13:33.032Z,98838.23
2022-12-23T00:16:07.676Z,98841.59
2022-12-23T00:18:40.591Z,98843.70
2022-12-23T00:21:15.282Z,98836.71
2022-12-23T00:23:49.177Z,98831.66
2022-12-23T00:26:23.977Z,98829.06
2022-12-23T00:28:58.919Z,98836.95
2022-12-23T00:31:31.432Z,98843.80
2022-12-23T00:34:03.689Z,98847.15
2022-12-23T00:36:37.654Z,98847.86
2022-12-23T00:39:35.573Z,98840.52
2022-12-23T00:42:25.455Z,98835.13
2022-12-23T00:45:15.987Z,98836.70
2022-12-23T00:48:06.649Z,98839.18
2022-12-23T00:50:41.013Z,98840.92
2022-12-23T00:53:13.043Z,98836.93
2022-12-23T00:55:46.195Z,98829.08
2022-12-23T00:58:18.919Z,98825.41
2022-12-23T01:01:08.826Z,98818.80
2022-12-23T01:03:58.794Z,98824.23
2022-12-23T01:06:30.853Z,98828.79
2022-12-23T01:09:02.926Z,98829.32
2022-12-23T01:11:34.986Z,98830.73
2022-12-23T01:14:09.511Z,98833.53
2022-12-23T01:16:42.090Z,98839.15
2022-12-23T01:19:14.257Z,98842.31
2022-12-23T01:21:46.324Z,98842.86
2022-12-23T01:24:18.488Z,98842.19
2022-12-23T01:26:50.563Z,98841.67
2022-12-23T01:29:22.630Z,98843.80
2022-12-23T01:31:54.755Z,98836.10
2022-12-23T01:34:32.577Z,98832.10
2022-12-23T01:37:08.559Z,98835.27
2022-12-23T01:39:40.828Z,98838.41
2022-12-23T01:42:33.165Z,98833.01
2022-12-23T01:45:07.588Z,98834.77
2022-12-23T01:47:43.647Z,98843.52
2022-12-23T01:50:20.835Z,98841.08
2022-12-23T01:53:03.098Z,98838.66
2022-12-23T01:55:43.522Z,98838.85
2022-12-23T01:58:20.791Z,98838.67
2022-12-23T02:01:11.151Z,98842.73
2022-12-23T02:03:44.067Z,98844.31
2022-12-23T02:06:40.004Z,98845.39
2022-12-23T02:09:20.173Z,98848.20
2022-12-23T02:12:16.338Z,98847.87
2022-12-23T02:15:20.743Z,98849.11
2022-12-23T02:18:04.698Z,98848.09
2022-12-23T02:20:58.018Z,98849.31
2022-12-23T02:24:06.539Z,98841.64
2022-12-23T02:27:05.959Z,98839.91
2022-12-23T02:30:02.076Z,98841.33
2022-12-23T02:32:44.691Z,98844.14
2022-12-23T02:35:25.496Z,98845.36
2022-12-23T02:38:03.884Z,98845.54
2022-12-23T02:40:42.087Z,98845.04
2022-12-23T02:43:18.768Z,98844.54
2022-12-23T02:45:56.084Z,98842.60
2022-12-23T02:48:36.633Z,98848.38
2022-12-23T02:51:12.026Z,98844.52
2022-12-23T02:53:49.145Z,98839.66
2022-12-23T02:56:24.729Z,98834.23
2022-12-23T02:58:57.167Z,98838.11
2022-12-23T03:01:33.072Z,98837.81
2022-12-23T03:04:06.933Z,98835.17
2022-12-23T03:06:41.398Z,98828.76
2022-12-23T03:09:22.890Z,98829.46
2022-12-23T03:12:02.089Z,98829.98
2022-12-23T03:15:02.511Z,98826.52
2022-12-23T03:17:44.212Z,98821.83
2022-12-23T03:20:16.876Z,98822.36
2022-12-23T03:22:56.934Z,98823.44
2022-12-23T03:25:32.781Z,98824.14
2022-12-23T03:28:12.546Z,98828.17
2022-12-23T03:30:49.017Z,98834.14
2022-12-23T03:33:25.546Z,98835.72
2022-12-23T03:36:05.017Z,98832.22
2022-12-23T03:38:40.695Z,98824.71
2022-12-23T03:41:18.057Z,98816.52
2022-12-23T03:43:55.961Z,98822.27
2022-12-23T03:46:32.800Z,98820.91
2022-12-23T03:49:08.798Z,98817.05
2022-12-23T03:51:46.599Z,98817.09
2022-12-23T03:54:24.139Z,98817.79
2022-12-23T03:57:02.815Z,98812.58
2022-12-23T03:59:39.184Z,98811.72
2022-12-23T04:02:16.944Z,98809.80
2022-12-23T04:05:03.715Z,98814.70
2022-12-23T04:07:39.652Z,98813.84
2022-12-23T04:10:14.247Z,98817.67
2022-12-23T04:12:46.991Z,98815.07
2022-12-23T04:15:24.444Z,98814.20
2022-12-23T04:17:58.261Z,98807.75
2022-12-23T04:20:30.190Z,98807.05
2022-12-23T04:23:02.286Z,98809.87
2022-12-23T04:25:34.435Z,98815.81
2022-12-23T04:28:07.037Z,98816.86
2022-12-23T04:30:38.998Z,98814.61
2022-12-23T04:33:13.570Z,98817.08
2022-12-23T04:35:45.594Z,98811.50
2022-12-23T04:38:17.562Z,98802.96
2022-12-23T04:40:49.852Z,98805.38
2022-12-23T04:43:21.891Z,98802.43
2022-12-23T04:45:54.560Z,98798.39
2022-12-23T04:48:26.639Z,98794.85
2022-12-23T04:50:58.707Z,98785.92
2022-12-23T04:53:30.716Z,98796.22
2022-12-23T04:56:02.722Z,98794.79
2022-12-23T04:58:34.817Z,98787.09
2022-12-23T05:01:08.704Z,98785.13
2022-12-23T05:03:41.746Z,98776.02
2022-12-23T05:06:13.969Z,98768.43
2022-12-23T05:08:45.943Z,98763.14
2022-12-23T05:11:17.976Z,98755.42
2022-12-23T05:13:49.951Z,98757.16
2022-12-23T05:16:22.498Z,98752.77
2022-12-23T05:18:54.548Z,98757.61
2022-12-23T05:21:26.907Z,98755.97
2022-12-23T05:23:59.354Z,98759.25
2022-12-23T05:26:31.347Z,98760.60
2022-12-23T05:29:03.313Z,98765.42
2022-12-23T05:31:35.584Z,98766.77
2022-12-23T05:34:07.755Z,98765.33
2022-12-23T05:36:39.890Z,98760.86
2022-12-23T05:39:11.953Z,98751.73
2022-12-23T05:41:44.020Z,98745.91
2022-12-23T05:44:16.089Z,98742.74
2022-12-23T05:46:48.101Z,98745.80
2022-12-23T05:49:20.638Z,98744.90
2022-12-23T05:51:52.621Z,98750.10
2022-12-23T05:54:24.667Z,98749.89
2022-12-23T05:56:56.701Z,98751.10
2022-12-23T05:59:31.635Z,98754.36
2022-12-23T06:02:04.221Z,98760.27
2022-12-23T06:04:36.510Z,98762.67
2022-12-23T06:07:08.577Z,98761.27
2022-12-23T06:09:40.548Z,98760.81
2022-12-23T06:12:12.476Z,98763.58
2022-12-23T06:14:44.571Z,98767.04
2022-12-23T06:17:16.640Z,98770.86
2022-12-23T06:19:48.707Z,98775.89
2022-12-23T06:22:21.890Z,98780.91
2022-12-23T06:24:54.269Z,98782.45
2022-12-23T06:27:26.438Z,98784.69
2022-12-23T06:29:58.521Z,98782.39
2022-12-23T06:32:34.511Z,98785.16
2022-12-23T06:35:11.828Z,98787.52
2022-12-23T06:37:44.786Z,98785.58
2022-12-23T06:40:17.313Z,98781.69
2022-12-23T06:42:49.287Z,98783.44
2022-12-23T06:45:21.359Z,98788.50
2022-12-23T06:47:53.364Z,98789.88
2022-12-23T06:50:25.480Z,98791.08
2022-12-23T06:52:57.547Z,98793.48
2022-12-23T06:55:29.825Z,98795.37
2022-12-23T06:58:02.496Z,98795.36
2022-12-23T07:00:34.588Z,98798.64
2022-12-23T07:03:15.186Z,98794.34
2022-12-23T07:05:51.558Z,98794.64
2022-12-23T07:08:24.182Z,98796.66
2022-12-23T14:31:32.069Z,98729.50
2022-12-23T14:34:28.956Z,98731.98
2022-12-23T14:37:32.882Z,98737.71
2022-12-23T14:40:35.643Z,98750.70
2022-12-23T14:43:33.263Z,98747.23
2022-12-23T14:46:07.763Z,98744.83
2022-12-23T14:49:39.672Z,98747.55
2022-12-23T14:52:49.695Z,98744.96
2022-12-23T14:55:47.232Z,98735.15
2022-12-23T14:58:54.872Z,98734.67
2022-12-23T15:01:38.718Z,98740.04
2022-12-23T15:04:21.052Z,98743.62
2022-12-23T15:06:56.365Z,98752.94
2022-12-23T15:09:32.789Z,98748.77
2022-12-23T15:12:21.124Z,98748.81
2022-12-23T15:14:57.475Z,98753.58
2022-12-23T15:17:32.065Z,98758.67
2022-12-23T15:20:15.991Z,98756.33
2022-12-23T15:22:49.907Z,98758.30
2022-12-23T15:25:27.517Z,98761.88
2022-12-23T15:28:02.797Z,98765.70
2022-12-23T15:30:47.518Z,98764.08
2022-12-23T15:36:22.998Z,98764.86
2022-12-23T15:38:55.727Z,98765.36
2022-12-23T15:41:28.697Z,98757.04
2022-12-23T15:44:02.772Z,98755.63
2022-12-23T15:46:42.051Z,98752.16
2022-12-23T15:49:21.489Z,98749.69
2022-12-23T15:52:07.771Z,98749.61
2022-12-23T15:54:47.197Z,98753.30
2022-12-23T15:57:24.363Z,98752.48
2022-12-23T15:59:57.809Z,98748.87
2022-12-23T16:03:00.536Z,98750.20
2022-12-23T16:05:31.200Z,98747.98
2022-12-23T16:08:29.044Z,98754.02
2022-12-23T16:11:14.911Z,98745.66
2022-12-23T16:14:06.635Z,98739.59
2022-12-23T16:16:57.120Z,98736.20
2022-12-23T16:19:58.073Z,98742.68
2022-12-23T16:22:52.042Z,98744.70
2022-12-23T16:25:48.439Z,98743.73
2022-12-23T16:28:43.509Z,98742.86
2022-12-23T16:31:23.798Z,98744.09
2022-12-23T16:34:01.192Z,98742.70
2022-12-23T16:36:39.086Z,98747.02
2022-12-23T16:39:25.546Z,98746.48
2022-12-23T16:42:07.564Z,98747.61
2022-12-23T16:44:41.457Z,98745.64
2022-12-23T16:47:20.095Z,98744.83
2022-12-23T16:49:53.158Z,98749.47
2022-12-23T16:52:25.861Z,98752.23
2022-12-23T16:54:58.231Z,98755.80
2022-12-23T16:57:30.780Z,98754.21
2022-12-23T17:00:03.459Z,98757.96
2022-12-23T17:02:36.277Z,98759.40
2022-12-23T17:05:13.929Z,98761.38
2022-12-23T17:07:46.857Z,98760.58
2022-12-23T17:10:19.657Z,98758.85
2022-12-23T17:12:52.889Z,98763.51
2022-12-23T17:15:27.019Z,98755.61
2022-12-23T17:17:59.747Z,98757.50
2022-12-23T17:20:33.725Z,98757.33
2022-12-23T17:23:07.625Z,98758.59
2022-12-23T17:25:40.133Z,98762.36
2022-12-23T17:28:13.604Z,98770.63
2022-12-23T17:30:46.033Z,98770.13
2022-12-23T17:33:20.674Z,98762.59
2022-12-23T17:35:53.724Z,98770.06
2022-12-23T17:38:27.629Z,98770.16
2022-12-23T17:41:00.994Z,98770.66
2022-12-23T17:43:33.823Z,98769.76
2022-12-23T17:46:06.399Z,98764.62
2022-12-23T17:48:38.872Z,98767.94
2022-12-23T17:51:15.633Z,98768.12
2022-12-23T17:53:55.128Z,98771.45
2022-12-23T17:56:30.380Z,98770.05
2022-12-23T17:59:02.870Z,98771.86
2022-12-23T18:01:35.397Z,98772.79
2022-12-23T18:04:07.984Z,98779.81
2022-12-23T18:06:40.918Z,98785.08
2022-12-23T18:09:13.223Z,98788.29
2022-12-23T18:11:50.899Z,98790.50
2022-12-23T18:14:28.176Z,98794.36
2022-12-23T18:17:01.479Z,98788.95
2022-12-23T18:19:34.679Z,98781.73
2022-12-23T18:22:07.139Z,98779.98
2022-12-23T18:24:39.489Z,98779.91
2022-12-23T18:27:16.268Z,98779.95
2022-12-23T18:29:49.482Z,98781.50
2022-12-23T18:32:27.612Z,98777.36
2022-12-23T18:34:59.949Z,98778.37
2022-12-23T18:37:32.557Z,98780.25
2022-12-23T18:40:07.158Z,98778.02
2022-12-23T18:42:39.646Z,98774.83
2022-12-23T18:45:26.042Z,98778.33
2022-12-23T18:47:58.965Z,98780.38
2022-12-23T18:50:32.514Z,98770.94
2022-12-23T18:53:05.711Z,98766.84
2022-12-23T18:55:39.334Z,98768.17
2022-12-23T18:58:14.482Z,98766.53
2022-12-23T19:00:47.925Z,98769.98
2022-12-23T19:03:25.345Z,98768.98
2022-12-23T19:06:06.710Z,98766.63
2022-12-23T19:08:40.643Z,98764.25
2022-12-23T19:11:18.543Z,98764.98
2022-12-23T19:13:50.920Z,98767.83
2022-12-23T19:16:23.829Z,98765.04
2022-12-23T19:18:56.269Z,98766.88
2022-12-23T19:21:28.884Z,98773.92
2022-12-23T19:24:01.113Z,98774.96
2022-12-23T19:26:33.411Z,98773.47
2022-12-23T19:29:05.768Z,98774.13
2022-12-23T19:31:38.665Z,98775.45
2022-12-23T19:34:15.328Z,98777.56
2022-12-23T19:36:48.673Z,98784.73
2022-12-23T19:39:22.122Z,98780.13
2022-12-23T19:41:55.360Z,98774.27
2022-12-23T19:44:27.696Z,98766.10
2022-12-23T19:47:00.686Z,98758.99
2022-12-23T19:49:34.620Z,98745.55
2022-12-23T19:52:07.410Z,98735.20
2022-12-23T19:54:40.333Z,98728.08
2022-12-23T19:57:12.838Z,98728.71
2022-12-23T19:59:45.434Z,98724.59
2022-12-23T20:02:20.354Z,98717.57
2022-12-23T20:04:53.221Z,98710.30
2022-12-23T20:07:25.781Z,98713.80
2022-12-23T20:09:58.055Z,98712.11
2022-12-23T20:12:30.251Z,98718.82
2022-12-23T20:15:02.732Z,98720.90
2022-12-23T20:17:35.093Z,98718.98
2022-12-23T20:20:09.550Z,98718.05
2022-12-23T20:22:41.815Z,98710.64
2022-12-23T20:25:14.363Z,98712.98
2022-12-23T20:27:46.944Z,98709.05
2022-12-23T20:30:19.522Z,98703.42
2022-12-23T20:32:52.117Z,98694.86
2022-12-23T20:35:24.633Z,98696.98
2022-12-23T20:37:57.315Z,98691.04
2022-12-23T20:40:29.828Z,98685.83
2022-12-23T20:43:02.277Z,98685.11
2022-12-23T20:45:35.159Z,98685.80
2022-12-23T20:48:08.344Z,98691.88
2022-12-23T20:50:42.745Z,98688.23
2022-12-23T20:53:15.279Z,98691.99
2022-12-23T20:55:47.662Z,98683.14
2022-12-23T20:58:37.747Z,98680.35
2022-12-23T21:01:14.521Z,98676.74
2022-12-23T21:03:46.920Z,98682.69
2022-12-23T21:06:19.916Z,98682.16
2022-12-23T21:08:55.901Z,98676.52
2022-12-23T21:11:28.658Z,98678.84
2022-12-23T21:14:06.324Z,98676.27
2022-12-23T21:16:40.792Z,98679.20
2022-12-23T21:19:18.662Z,98682.48
2022-12-23T21:21:52.200Z,98678.08
2022-12-23T21:24:24.489Z,98681.94
2022-12-23T21:26:57.465Z,98686.98
2022-12-23T21:29:30.445Z,98681.83
2022-12-23T21:32:02.909Z,98687.11
2022-12-23T21:34:35.185Z,98686.54
2022-12-23T21:37:07.307Z,98691.92
2022-12-23T21:39:39.826Z,98683.17
2022-12-23T21:42:12.212Z,98684.58
2022-12-23T21:44:44.974Z,98688.21
2022-12-23T21:47:17.489Z,98686.83
2022-12-23T21:49:50.337Z,98684.21
2022-12-23T21:52:23.326Z,98683.20
2022-12-23T21:54:55.692Z,98683.91
2022-12-23T21:57:28.246Z,98684.88
2022-12-23T22:00:00.384Z,98686.59
2022-12-23T22:02:33.135Z,98687.91
2022-12-23T22:05:06.006Z,98686.42
2022-12-23T22:07:39.088Z,98683.35
2022-12-23T22:10:13.718Z,98674.48
2022-12-23T22:12:45.783Z,98667.63
2022-12-23T22:15:19.628Z,98666.09
2022-12-23T22:17:52.714Z,98663.34
2022-12-23T22:20:25.113Z,98658.53
2022-12-23T22:22:57.420Z,98655.23
2022-12-23T22:25:29.510Z,98649.51
2022-12-23T22:28:03.008Z,98649.98
2022-12-23T22:30:35.194Z,98646.80
2022-12-23T22:33:08.655Z,98649.92
2022-12-23T22:35:40.834Z,98657.81
2022-12-23T22:38:13.018Z,98664.15
2022-12-23T22:40:49.147Z,98661.91
2022-12-23T22:43:22.224Z,98653.95
2022-12-23T22:46:01.193Z,98646.62
2022-12-23T22:48:33.676Z,98642.19
2022-12-23T22:51:09.615Z,98641.21
2022-12-23T22:53:42.529Z,98641.29
2022-12-23T22:56:16.767Z,98642.05
2022-12-23T22:58:49.374Z,98641.03
2022-12-23T23:01:25.011Z,98636.55
2022-12-23T23:03:59.557Z,98637.09
2022-12-23T23:06:34.116Z,98630.16
2022-12-23T23:09:07.897Z,98631.28
2022-12-23T23:11:40.649Z,98624.61
2022-12-23T23:14:13.600Z,98624.23
2022-12-23T23:16:46.283Z,98613.95
2022-12-23T23:19:20.807Z,98612.92
2022-12-23T23:21:53.569Z,98605.98
2022-12-23T23:24:31.064Z,98603.44
2022-12-23T23:27:03.837Z,98597.44
2022-12-23T23:29:36.135Z,98593.81
2022-12-23T23:32:09.601Z,98592.07
2022-12-23T23:34:42.297Z,98585.65
2022-12-23T23:37:15.861Z,98574.39
2022-12-23T23:39:48.655Z,98567.10
2022-12-23T23:42:21.040Z,98562.06
2022-12-23T23:44:53.384Z,98556.65
2022-12-23T23:47:25.890Z,98556.35
2022-12-23T23:49:58.120Z,98559.16
2022-12-23T23:52:30.366Z,98561.65
2022-12-23T23:55:02.597Z,98556.40
2022-12-23T23:57:35.398Z,98554.11
